sensor_id;sensor_type;location;lat;lon;timestamp;pressure;altitude;pressure_sealevel;temperature;humidity
14232;BME280;7200;52.194;9.900;2022-11-21T00:01:31;99118.81;;;0.29;100.00
14232;BME280;7200;52.194;9.900;2022-11-21T00:03:56;99122.22;;;0.31;100.00
14232;BME280;7200;52.194;9.900;2022-11-21T00:06:21;99105.84;;;0.27;100.00
14232;BME280;7200;52.194;9.900;2022-11-21T00:08:47;99105.97;;;0.21;100.00
14232;BME280;7200;52.194;9.900;2022-11-21T00:11:13;99105.97;;;0.19;100.00
14232;BME280;7200;52.194;9.900;2022-11-21T00:13:39;99124.94;;;0.23;100.00
14232;BME280;7200;52.194;9.900;2022-11-21T00:16:06;99144.66;;;0.33;100.00
14232;BME280;7200;52.194;9.900;2022-11-21T00:18:33;99144.59;;;0.38;100.00
14232;BME280;7200;52.194;9.900;2022-11-21T00:21:03;99146.38;;;0.34;100.00
14232;BME280;7200;52.194;9.900;2022-11-21T00:23:28;99136.16;;;0.25;100.00
14232;BME280;7200;52.194;9.900;2022-11-21T00:25:54;99138.66;;;0.30;100.00
14232;BME280;7200;52.194;9.900;2022-11-21T00:28:19;99136.94;;;0.30;100.00
14232;BME280;7200;52.194;9.900;2022-11-21T00:30:44;99140.38;;;0.31;100.00
14232;BME280;7200;52.194;9.900;2022-11-21T00:33:09;99148.19;;;0.29;100.00
14232;BME280;7200;52.194;9.900;2022-11-21T00:35:35;99137.91;;;0.25;100.00
14232;BME280;7200;52.194;9.900;2022-11-21T00:38:00;99142.13;;;0.30;100.00
14232;BME280;7200;52.194;9.900;2022-11-21T00:40:25;99137.78;;;0.31;100.00
14232;BME280;7200;52.194;9.900;2022-11-21T00:42:51;99147.22;;;0.35;100.00
14232;BME280;7200;52.194;9.900;2022-11-21T00:45:16;99148.09;;;0.34;100.00
14232;BME280;7200;52.194;9.900;2022-11-21T00:47:41;99134.28;;;0.32;100.00
14232;BME280;7200;52.194;9.900;2022-11-21T00:50:07;99148.91;;;0.37;100.00
14232;BME280;7200;52.194;9.900;2022-11-21T00:52:33;99149.75;;;0.39;100.00
14232;BME280;7200;52.194;9.900;2022-11-21T00:54:59;99157.47;;;0.44;100.00
14232;BME280;7200;52.194;9.900;2022-11-21T00:57:24;99140.28;;;0.37;100.00
14232;BME280;7200;52.194;9.900;2022-11-21T00:59:49;99132.50;;;0.35;100.00
14232;BME280;7200;52.194;9.900;2022-11-21T01:02:15;99132.50;;;0.37;100.00
14232;BME280;7200;52.194;9.900;2022-11-21T01:04:40;99117.84;;;0.34;100.00
14232;BME280;7200;52.194;9.900;2022-11-21T01:07:05;99120.47;;;0.31;100.00
14232;BME280;7200;52.194;9.900;2022-11-21T01:09:31;99124.00;;;0.29;100.00
14232;BME280;7200;52.194;9.900;2022-11-21T01:11:56;99131.78;;;0.27;100.00
14232;BME280;7200;52.194;9.900;2022-11-21T01:14:22;99143.91;;;0.27;100.00
14232;BME280;7200;52.194;9.900;2022-11-21T01:16:47;99152.44;;;0.33;100.00
14232;BME280;7200;52.194;9.900;2022-11-21T01:19:13;99152.41;;;0.35;100.00
14232;BME280;7200;52.194;9.900;2022-11-21T01:21:38;99159.28;;;0.37;100.00
14232;BME280;7200;52.194;9.900;2022-11-21T01:24:03;99148.19;;;0.28;100.00
14232;BME280;7200;52.194;9.900;2022-11-21T01:26:30;99142.97;;;0.31;100.00
14232;BME280;7200;52.194;9.900;2022-11-21T01:28:57;99137.81;;;0.29;100.00
14232;BME280;7200;52.194;9.900;2022-11-21T01:31:27;99127.47;;;0.26;100.00
14232;BME280;7200;52.194;9.900;2022-11-21T01:33:54;99132.66;;;0.26;100.00
14232;BME280;7200;52.194;9.900;2022-11-21T01:36:29;99133.47;;;0.28;100.00
14232;BME280;7200;52.194;9.900;2022-11-21T01:38:57;99135.22;;;0.29;100.00
14232;BME280;7200;52.194;9.900;2022-11-21T01:41:25;99137.81;;;0.29;100.00
14232;BME280;7200;52.194;9.900;2022-11-21T01:43:52;99136.03;;;0.31;100.00
14232;BME280;7200;52.194;9.900;2022-11-21T01:46:21;99145.50;;;0.34;100.00
14232;BME280;7200;52.194;9.900;2022-11-21T01:48:54;99142.91;;;0.34;100.00
14232;BME280;7200;52.194;9.900;2022-11-21T01:51:25;99147.25;;;0.32;100.00
14232;BME280;7200;52.194;9.900;2022-11-21T01:53:57;99142.03;;;0.35;100.00
14232;BME280;7200;52.194;9.900;2022-11-21T01:56:26;99136.88;;;0.33;100.00
14232;BME280;7200;52.194;9.900;2022-11-21T01:58:54;99136.03;;;0.33;100.00
14232;BME280;7200;52.194;9.900;2022-11-21T02:01:21;99135.13;;;0.34;100.00
14232;BME280;7200;52.194;9.900;2022-11-21T02:03:47;99142.00;;;0.38;100.00
14232;BME280;7200;52.194;9.900;2022-11-21T02:06:13;99147.91;;;0.46;100.00
14232;BME280;7200;52.194;9.900;2022-11-21T02:08:40;99142.00;;;0.38;100.00
14232;BME280;7200;52.194;9.900;2022-11-21T02:11:15;99153.09;;;0.46;100.00
14232;BME280;7200;52.194;9.900;2022-11-21T02:13:42;99147.09;;;0.44;100.00
14232;BME280;7200;52.194;9.900;2022-11-21T02:16:08;99152.25;;;0.47;100.00
14232;BME280;7200;52.194;9.900;2022-11-21T02:18:33;99156.50;;;0.50;100.00
14232;BME280;7200;52.194;9.900;2022-11-21T02:21:05;99147.81;;;0.51;100.00
14232;BME280;7200;52.194;9.900;2022-11-21T02:23:42;99146.97;;;0.52;100.00
14232;BME280;7200;52.194;9.900;2022-11-21T02:26:09;99134.84;;;0.51;100.00
14232;BME280;7200;52.194;9.900;2022-11-21T02:28:35;99134.94;;;0.48;100.00
14232;BME280;7200;52.194;9.900;2022-11-21T02:31:00;99131.47;;;0.47;100.00
14232;BME280;7200;52.194;9.900;2022-11-21T02:33:26;99112.69;;;0.31;100.00
14232;BME280;7200;52.194;9.900;2022-11-21T02:35:55;99070.97;;;-0.09;100.00
14232;BME280;7200;52.194;9.900;2022-11-21T02:38:28;99091.84;;;-0.17;100.00
14232;BME280;7200;52.194;9.900;2022-11-21T02:41:27;99088.66;;;-0.37;100.00
14232;BME280;7200;52.194;9.900;2022-11-21T02:43:58;99096.47;;;-0.42;100.00
14232;BME280;7200;52.194;9.900;2022-11-21T02:46:26;99089.75;;;-0.55;100.00
14232;BME280;7200;52.194;9.900;2022-11-21T02:48:52;99098.56;;;-0.67;100.00
14232;BME280;7200;52.194;9.900;2022-11-21T02:51:19;99114.97;;;-0.70;100.00
14232;BME280;7200;52.194;9.900;2022-11-21T02:53:44;99126.22;;;-0.72;100.00
14232;BME280;7200;52.194;9.900;2022-11-21T02:56:10;99156.38;;;-0.67;100.00
14232;BME280;7200;52.194;9.900;2022-11-21T02:58:35;99148.69;;;-0.73;100.00
14232;BME280;7200;52.194;9.900;2022-11-21T03:01:01;99154.72;;;-0.75;100.00
14232;BME280;7200;52.194;9.900;2022-11-21T03:03:26;99176.25;;;-0.69;100.00
14232;BME280;7200;52.194;9.900;2022-11-21T03:05:51;99189.13;;;-0.63;100.00
14232;BME280;7200;52.194;9.900;2022-11-21T03:08:17;99176.28;;;-0.70;100.00
14232;BME280;7200;52.194;9.900;2022-11-21T03:10:42;99194.38;;;-0.67;100.00
14232;BME280;7200;52.194;9.900;2022-11-21T03:13:07;99209.00;;;-0.65;100.00
14232;BME280;7200;52.194;9.900;2022-11-21T03:15:33;99219.28;;;-0.55;100.00
14232;BME280;7200;52.194;9.900;2022-11-21T03:18:00;99240.75;;;-0.44;100.00
14232;BME280;7200;52.194;9.900;2022-11-21T03:20:27;99242.44;;;-0.40;100.00
14232;BME280;7200;52.194;9.900;2022-11-21T03:22:52;99244.16;;;-0.39;100.00
14232;BME280;7200;52.194;9.900;2022-11-21T03:25:18;99244.16;;;-0.39;100.00
14232;BME280;7200;52.194;9.900;2022-11-21T03:27:43;99238.16;;;-0.43;100.00
14232;BME280;7200;52.194;9.900;2022-11-21T03:30:09;99264.78;;;-0.30;100.00
14232;BME280;7200;52.194;9.900;2022-11-21T03:32:35;99240.66;;;-0.38;100.00
14232;BME280;7200;52.194;9.900;2022-11-21T03:35:00;99258.69;;;-0.26;100.00
14232;BME280;7200;52.194;9.900;2022-11-21T03:37:25;99271.44;;;-0.09;100.00
14232;BME280;7200;52.194;9.900;2022-11-21T03:39:50;99257.66;;;-0.12;100.00
14232;BME280;7200;52.194;9.900;2022-11-21T03:42:16;99249.97;;;-0.17;100.00
14232;BME280;7200;52.194;9.900;2022-11-21T03:44:41;99260.28;;;-0.14;100.00
14232;BME280;7200;52.194;9.900;2022-11-21T03:47:06;99258.59;;;-0.18;100.00
14232;BME280;7200;52.194;9.900;2022-11-21T03:49:32;99244.91;;;-0.29;100.00
14232;BME280;7200;52.194;9.900;2022-11-21T03:51:57;99251.81;;;-0.30;100.00
14232;BME280;7200;52.194;9.900;2022-11-21T03:54:22;99232.88;;;-0.36;100.00
14232;BME280;7200;52.194;9.900;2022-11-21T03:56:47;99240.72;;;-0.41;100.00
14232;BME280;7200;52.194;9.900;2022-11-21T03:59:13;99244.19;;;-0.44;100.00
14232;BME280;7200;52.194;9.900;2022-11-21T04:01:38;99251.13;;;-0.46;100.00
14232;BME280;7200;52.194;9.900;2022-11-21T04:04:04;99238.25;;;-0.52;100.00
14232;BME280;7200;52.194;9.900;2022-11-21T04:06:29;99227.97;;;-0.61;100.00
14232;BME280;7200;52.194;9.900;2022-11-21T04:08:55;99226.28;;;-0.62;100.00
14232;BME280;7200;52.194;9.900;2022-11-21T04:11:21;99211.69;;;-0.74;100.00
14232;BME280;7200;52.194;9.900;2022-11-21T04:13:49;99233.16;;;-0.63;100.00
14232;BME280;7200;52.194;9.900;2022-11-21T04:16:14;99217.69;;;-0.66;100.00
14232;BME280;7200;52.194;9.900;2022-11-21T04:18:39;99213.41;;;-0.71;100.00
14232;BME280;7200;52.194;9.900;2022-11-21T04:21:06;99215.19;;;-0.75;100.00
14232;BME280;7200;52.194;9.900;2022-11-21T04:23:32;99204.91;;;-0.86;100.00
14232;BME280;7200;52.194;9.900;2022-11-21T04:25:58;99216.13;;;-0.85;100.00
14232;BME280;7200;52.194;9.900;2022-11-21T04:28:23;99204.16;;;-0.94;100.00
14232;BME280;7200;52.194;9.900;2022-11-21T04:30:49;99192.19;;;-1.07;100.00
14232;BME280;7200;52.194;9.900;2022-11-21T04:33:15;99197.44;;;-1.16;100.00
14232;BME280;7200;52.194;9.900;2022-11-21T04:35:45;99192.34;;;-1.24;100.00
14232;BME280;7200;52.194;9.900;2022-11-21T04:38:11;99184.66;;;-1.37;100.00
14232;BME280;7200;52.194;9.900;2022-11-21T04:40:37;99185.63;;;-1.47;100.00
14232;BME280;7200;52.194;9.900;2022-11-21T04:43:03;99195.97;;;-1.47;100.00
14232;BME280;7200;52.194;9.900;2022-11-21T04:45:28;99198.59;;;-1.54;100.00
14232;BME280;7200;52.194;9.900;2022-11-21T04:47:53;99220.97;;;-1.49;100.00
14232;BME280;7200;52.194;9.900;2022-11-21T04:50:19;99224.44;;;-1.48;100.00
14232;BME280;7200;52.194;9.900;2022-11-21T04:52:55;99212.47;;;-1.62;100.00
14232;BME280;7200;52.194;9.900;2022-11-21T04:55:23;99217.66;;;-1.66;100.00
14232;BME280;7200;52.194;9.900;2022-11-21T04:57:49;99212.56;;;-1.79;100.00
14232;BME280;7200;52.194;9.900;2022-11-21T05:00:16;99227.25;;;-1.82;100.00
14232;BME280;7200;52.194;9.900;2022-11-21T05:02:41;99240.13;;;-1.78;100.00
14232;BME280;7200;52.194;9.900;2022-11-21T05:05:07;99240.16;;;-1.82;100.00
14232;BME280;7200;52.194;9.900;2022-11-21T05:07:33;99259.06;;;-1.74;100.00
14232;BME280;7200;52.194;9.900;2022-11-21T05:09:58;99249.63;;;-1.80;100.00
14232;BME280;7200;52.194;9.900;2022-11-21T05:12:24;99247.06;;;-1.86;100.00
14232;BME280;7200;52.194;9.900;2022-11-21T05:15:08;99260.84;;;-1.84;100.00
14232;BME280;7200;52.194;9.900;2022-11-21T05:17:34;99272.88;;;-1.81;100.00
14232;BME280;7200;52.194;9.900;2022-11-21T05:19:59;99271.19;;;-1.81;100.00
14232;BME280;7200;52.194;9.900;2022-11-21T05:22:24;99267.75;;;-1.84;100.00
14232;BME280;7200;52.194;9.900;2022-11-21T05:24:50;99279.78;;;-1.77;100.00
14232;BME280;7200;52.194;9.900;2022-11-21T05:27:15;99270.34;;;-1.87;100.00
14232;BME280;7200;52.194;9.900;2022-11-21T05:29:40;99297.00;;;-1.79;100.00
14232;BME280;7200;52.194;9.900;2022-11-21T05:32:05;99292.72;;;-1.82;100.00
14232;BME280;7200;52.194;9.900;2022-11-21T05:34:31;99288.44;;;-1.86;100.00
14232;BME280;7200;52.194;9.900;2022-11-21T05:36:56;99289.28;;;-1.85;100.00
14232;BME280;7200;52.194;9.900;2022-11-21T05:39:25;99292.72;;;-1.85;100.00
14232;BME280;7200;52.194;9.900;2022-11-21T05:41:50;99316.78;;;-1.69;100.00
14232;BME280;7200;52.194;9.900;2022-11-21T05:44:16;99321.06;;;-1.62;100.00
14232;BME280;7200;52.194;9.900;2022-11-21T05:46:41;99302.97;;;-1.63;100.00
14232;BME280;7200;52.194;9.900;2022-11-21T05:49:06;99295.22;;;-1.68;100.00
14232;BME280;7200;52.194;9.900;2022-11-21T05:51:33;99277.19;;;-1.79;100.00
14232;BME280;7200;52.194;9.900;2022-11-21T05:53:58;99297.81;;;-1.68;100.00
14232;BME280;7200;52.194;9.900;2022-11-21T05:56:24;99296.06;;;-1.66;100.00
14232;BME280;7200;52.194;9.900;2022-11-21T05:58:50;99291.78;;;-1.68;100.00
14232;BME280;7200;52.194;9.900;2022-11-21T06:01:15;99291.78;;;-1.64;100.00
14232;BME280;7200;52.194;9.900;2022-11-21T06:04:00;99305.53;;;-1.55;100.00
14232;BME280;7200;52.194;9.900;2022-11-21T06:06:26;99305.44;;;-1.43;100.00
14232;BME280;7200;52.194;9.900;2022-11-21T06:08:51;99306.28;;;-1.38;100.00
14232;BME280;7200;52.194;9.900;2022-11-21T06:11:16;99282.22;;;-1.52;100.00
14232;BME280;7200;52.194;9.900;2022-11-21T06:13:42;99292.53;;;-1.46;100.00
14232;BME280;7200;52.194;9.900;2022-11-21T06:16:09;99290.00;;;-1.52;100.00
14232;BME280;7200;52.194;9.900;2022-11-21T06:18:37;99304.56;;;-1.42;100.00
14232;BME280;7200;52.194;9.900;2022-11-21T06:21:05;99314.03;;;-1.33;100.00
14232;BME280;7200;52.194;9.900;2022-11-21T06:23:32;99299.41;;;-1.45;100.00
14232;BME280;7200;52.194;9.900;2022-11-21T06:26:01;99300.31;;;-1.48;100.00
14232;BME280;7200;52.194;9.900;2022-11-21T06:28:30;99307.16;;;-1.45;100.00
14232;BME280;7200;52.194;9.900;2022-11-21T06:31:04;99316.63;;;-1.35;100.00
14232;BME280;7200;52.194;9.900;2022-11-21T06:33:29;99325.19;;;-1.28;100.00
14232;BME280;7200;52.194;9.900;2022-11-21T06:35:55;99314.00;;;-1.32;100.00
14232;BME280;7200;52.194;9.900;2022-11-21T06:38:20;99310.56;;;-1.34;100.00
14232;BME280;7200;52.194;9.900;2022-11-21T06:40:45;99312.28;;;-1.36;100.00
14232;BME280;7200;52.194;9.900;2022-11-21T06:43:11;99294.22;;;-1.44;100.00
14232;BME280;7200;52.194;9.900;2022-11-21T06:45:36;99297.72;;;-1.48;100.00
14232;BME280;7200;52.194;9.900;2022-11-21T06:48:02;99292.59;;;-1.57;100.00
14232;BME280;7200;52.194;9.900;2022-11-21T06:50:28;99299.50;;;-1.59;100.00
14232;BME280;7200;52.194;9.900;2022-11-21T06:52:56;99286.63;;;-1.65;100.00
14232;BME280;7200;52.194;9.900;2022-11-21T06:55:22;99279.78;;;-1.77;100.00
14232;BME280;7200;52.194;9.900;2022-11-21T06:57:49;99276.34;;;-1.84;100.00
14232;BME280;7200;52.194;9.900;2022-11-21T07:00:14;99271.19;;;-1.87;100.00
14232;BME280;7200;52.194;9.900;2022-11-21T07:02:40;99291.84;;;-1.79;100.00
14232;BME280;7200;52.194;9.900;2022-11-21T07:05:05;99298.75;;;-1.75;100.00
14232;BME280;7200;52.194;9.900;2022-11-21T07:07:30;99306.47;;;-1.73;100.00
14232;BME280;7200;52.194;9.900;2022-11-21T07:09:56;99301.31;;;-1.78;100.00
14232;BME280;7200;52.194;9.900;2022-11-21T07:12:21;99293.56;;;-1.78;100.00
14232;BME280;7200;52.194;9.900;2022-11-21T07:15:05;99286.69;;;-1.84;100.00
14232;BME280;7200;52.194;9.900;2022-11-21T07:17:31;99279.88;;;-1.94;100.00
14232;BME280;7200;52.194;9.900;2022-11-21T07:19:56;99301.38;;;-1.84;100.00
14232;BME280;7200;52.194;9.900;2022-11-21T07:22:21;99295.34;;;-1.86;100.00
14232;BME280;7200;52.194;9.900;2022-11-21T07:24:46;99283.31;;;-1.97;100.00
14232;BME280;7200;52.194;9.900;2022-11-21T07:27:12;99278.13;;;-1.98;100.00
14232;BME280;7200;52.194;9.900;2022-11-21T07:29:37;99286.78;;;-1.99;100.00
14232;BME280;7200;52.194;9.900;2022-11-21T07:32:02;99280.75;;;-2.00;100.00
14232;BME280;7200;52.194;9.900;2022-11-21T07:34:27;99306.53;;;-1.86;100.00
14232;BME280;7200;52.194;9.900;2022-11-21T07:36:53;99317.69;;;-1.78;100.00
14232;BME280;7200;52.194;9.900;2022-11-21T07:39:18;99334.00;;;-1.66;100.00
14232;BME280;7200;52.194;9.900;2022-11-21T07:41:43;99327.94;;;-1.62;100.00
14232;BME280;7200;52.194;9.900;2022-11-21T07:44:08;99329.66;;;-1.57;100.00
14232;BME280;7200;52.194;9.900;2022-11-21T07:46:34;99319.28;;;-1.50;100.00
14232;BME280;7200;52.194;9.900;2022-11-21T07:48:59;99311.53;;;-1.55;100.00
14232;BME280;7200;52.194;9.900;2022-11-21T07:51:24;99308.09;;;-1.55;100.00
14232;BME280;7200;52.194;9.900;2022-11-21T07:53:50;99325.31;;;-1.47;100.00
14232;BME280;7200;52.194;9.900;2022-11-21T07:56:15;99336.47;;;-1.37;100.00
14232;BME280;7200;52.194;9.900;2022-11-21T07:58:40;99348.50;;;-1.30;100.00
14232;BME280;7200;52.194;9.900;2022-11-21T08:01:06;99345.88;;;-1.24;100.00
14232;BME280;7200;52.194;9.900;2022-11-21T08:03:33;99352.75;;;-1.20;100.00
14232;BME280;7200;52.194;9.900;2022-11-21T08:06:03;99354.44;;;-1.14;100.00
14232;BME280;7200;52.194;9.900;2022-11-21T08:08:29;99334.63;;;-1.23;100.00
14232;BME280;7200;52.194;9.900;2022-11-21T08:10:54;99338.94;;;-1.22;100.00
14232;BME280;7200;52.194;9.900;2022-11-21T08:13:19;99338.94;;;-1.22;100.00
14232;BME280;7200;52.194;9.900;2022-11-21T08:15:45;99321.78;;;-1.35;100.00
14232;BME280;7200;52.194;9.900;2022-11-21T08:18:12;99352.75;;;-1.20;100.00
14232;BME280;7200;52.194;9.900;2022-11-21T08:20:37;99355.28;;;-1.13;100.00
14232;BME280;7200;52.194;9.900;2022-11-21T08:23:03;99363.03;;;-1.09;100.00
14232;BME280;7200;52.194;9.900;2022-11-21T08:25:28;99380.22;;;-0.99;100.00
14232;BME280;7200;52.194;9.900;2022-11-21T08:27:57;99369.91;;;-1.03;100.00
14232;BME280;7200;52.194;9.900;2022-11-21T08:30:23;99375.91;;;-1.00;100.00
14232;BME280;7200;52.194;9.900;2022-11-21T08:32:48;99369.91;;;-1.05;100.00
14232;BME280;7200;52.194;9.900;2022-11-21T08:35:13;99382.81;;;-1.00;100.00
14232;BME280;7200;52.194;9.900;2022-11-21T08:37:39;99375.06;;;-1.03;100.00
14232;BME280;7200;52.194;9.900;2022-11-21T08:40:04;99382.84;;;-1.02;100.00
14232;BME280;7200;52.194;9.900;2022-11-21T08:42:30;99385.44;;;-1.05;100.00
14232;BME280;7200;52.194;9.900;2022-11-21T08:44:55;99398.31;;;-0.97;100.00
14232;BME280;7200;52.194;9.900;2022-11-21T08:47:20;99400.91;;;-0.94;100.00
14232;BME280;7200;52.194;9.900;2022-11-21T08:49:46;99406.94;;;-0.90;100.00
14232;BME280;7200;52.194;9.900;2022-11-21T08:52:13;99406.88;;;-0.86;100.00
14232;BME280;7200;52.194;9.900;2022-11-21T08:54:38;99413.75;;;-0.80;100.00
14232;BME280;7200;52.194;9.900;2022-11-21T08:57:03;99406.84;;;-0.80;100.00
14232;BME280;7200;52.194;9.900;2022-11-21T08:59:29;99423.16;;;-0.67;100.00
14232;BME280;7200;52.194;9.900;2022-11-21T09:01:54;99420.56;;;-0.67;100.00
14232;BME280;7200;52.194;9.900;2022-11-21T09:04:19;99418.88;;;-0.69;100.00
14232;BME280;7200;52.194;9.900;2022-11-21T09:06:44;99422.25;;;-0.61;100.00
14232;BME280;7200;52.194;9.900;2022-11-21T09:09:10;99422.19;;;-0.55;100.00
14232;BME280;7200;52.194;9.900;2022-11-21T09:11:35;99425.63;;;-0.53;100.00
14232;BME280;7200;52.194;9.900;2022-11-21T09:14:01;99429.03;;;-0.45;100.00
14232;BME280;7200;52.194;9.900;2022-11-21T09:16:45;99429.00;;;-0.40;100.00
14232;BME280;7200;52.194;9.900;2022-11-21T09:19:29;99429.88;;;-0.41;100.00
14232;BME280;7200;52.194;9.900;2022-11-21T09:21:55;99437.59;;;-0.32;100.00
14232;BME280;7200;52.194;9.900;2022-11-21T09:24:20;99425.47;;;-0.33;100.00
14232;BME280;7200;52.194;9.900;2022-11-21T09:26:45;99419.38;;;-0.27;100.00
14232;BME280;7200;52.194;9.900;2022-11-21T09:29:11;99423.66;;;-0.20;100.00
14232;BME280;7200;52.194;9.900;2022-11-21T09:31:42;99410.69;;;-0.22;100.00
14232;BME280;7200;52.194;9.900;2022-11-21T09:34:07;99412.38;;;-0.14;100.00
14232;BME280;7200;52.194;9.900;2022-11-21T09:36:33;99415.75;;;-0.08;100.00
14232;BME280;7200;52.194;9.900;2022-11-21T09:38:58;99420.88;;;0.00;100.00
14232;BME280;7200;52.194;9.900;2022-11-21T09:46:52;99424.94;;;0.23;100.00
14232;BME280;7200;52.194;9.900;2022-11-21T09:49:21;99402.59;;;0.12;100.00
14232;BME280;7200;52.194;9.900;2022-11-21T09:51:49;99403.41;;;0.19;100.00
14232;BME280;7200;52.194;9.900;2022-11-21T09:54:27;99393.06;;;0.11;100.00
14232;BME280;7200;52.194;9.900;2022-11-21T09:56:53;99385.25;;;0.17;100.00
14232;BME280;7200;52.194;9.900;2022-11-21T09:59:33;99390.38;;;0.24;100.00
14232;BME280;7200;52.194;9.900;2022-11-21T10:02:00;99397.13;;;0.35;100.00
14232;BME280;7200;52.194;9.900;2022-11-21T10:04:26;99391.94;;;0.35;100.00
14232;BME280;7200;52.194;9.900;2022-11-21T10:07:11;99384.19;;;0.34;100.00
14232;BME280;7200;52.194;9.900;2022-11-21T10:10:02;99394.34;;;0.52;100.00
14232;BME280;7200;52.194;9.900;2022-11-21T10:20:30;99337.34;;;0.45;100.00
14232;BME280;7200;52.194;9.900;2022-11-21T10:25:35;99321.06;;;0.33;100.00
14232;BME280;7200;52.194;9.900;2022-11-21T10:28:17;99312.47;;;0.30;100.00
14232;BME280;7200;52.194;9.900;2022-11-21T10:30:45;99314.19;;;0.32;100.00
14232;BME280;7200;52.194;9.900;2022-11-21T10:33:17;99304.75;;;0.25;100.00
14232;BME280;7200;52.194;9.900;2022-11-21T10:35:52;99291.06;;;0.12;100.00
14232;BME280;7200;52.194;9.900;2022-11-21T10:38:22;99302.19;;;0.21;100.00
14232;BME280;7200;52.194;9.900;2022-11-21T10:40:51;99297.06;;;0.17;100.00
14232;BME280;7200;52.194;9.900;2022-11-21T10:46:06;99296.97;;;0.25;100.00
14232;BME280;7200;52.194;9.900;2022-11-21T10:48:32;99272.00;;;0.15;100.00
14232;BME280;7200;52.194;9.900;2022-11-21T10:51:24;99260.88;;;0.08;100.00
14232;BME280;7200;52.194;9.900;2022-11-21T10:54:04;99261.72;;;0.10;100.00
14232;BME280;7200;52.194;9.900;2022-11-21T10:56:49;99281.31;;;0.33;100.00
14232;BME280;7200;52.194;9.900;2022-11-21T10:59:26;99303.50;;;0.54;100.00
14232;BME280;7200;52.194;9.900;2022-11-21T11:02:01;99328.28;;;0.76;100.00
14232;BME280;7200;52.194;9.900;2022-11-21T11:04:29;99336.72;;;0.92;100.00
14232;BME280;7200;52.194;9.900;2022-11-21T11:06:55;99326.22;;;1.00;100.00
14232;BME280;7200;52.194;9.900;2022-11-21T11:09:32;99327.72;;;1.13;100.00
14232;BME280;7200;52.194;9.900;2022-11-21T11:14:53;99281.13;;;1.03;100.00
14232;BME280;7200;52.194;9.900;2022-11-21T11:17:27;99264.72;;;1.02;100.00
14232;BME280;7200;52.194;9.900;2022-11-21T11:20:27;99266.22;;;1.14;100.00
14232;BME280;7200;52.194;9.900;2022-11-21T11:22:51;99266.09;;;1.22;100.00
14232;BME280;7200;52.194;9.900;2022-11-21T11:25:17;99238.50;;;1.14;100.00
14232;BME280;7200;52.194;9.900;2022-11-21T11:27:42;99235.75;;;1.24;100.00
14232;BME280;7200;52.194;9.900;2022-11-21T11:30:14;99228.03;;;1.21;100.00
14232;BME280;7200;52.194;9.900;2022-11-21T11:32:40;99239.09;;;1.32;100.00
14232;BME280;7200;52.194;9.900;2022-11-21T11:37:39;99231.97;;;1.42;100.00
14232;BME280;7200;52.194;9.900;2022-11-21T11:49:34;99185.09;;;1.46;100.00
14232;BME280;7200;52.194;9.900;2022-11-21T11:52:22;99180.81;;;1.45;100.00
14232;BME280;7200;52.194;9.900;2022-11-21T11:54:55;99166.09;;;1.43;100.00
14232;BME280;7200;52.194;9.900;2022-11-21T11:57:22;99158.28;;;1.44;100.00
14232;BME280;7200;52.194;9.900;2022-11-21T11:59:56;99139.38;;;1.38;100.00
14232;BME280;7200;52.194;9.900;2022-11-21T12:02:28;99134.91;;;1.44;100.00
14232;BME280;7200;52.194;9.900;2022-11-21T12:05:16;99104.91;;;1.28;100.00
14232;BME280;7200;52.194;9.900;2022-11-21T12:08:02;99109.34;;;1.23;100.00
14232;BME280;7200;52.194;9.900;2022-11-21T12:10:46;99110.97;;;1.28;100.00
14232;BME280;7200;52.194;9.900;2022-11-21T12:13:34;99100.50;;;1.31;100.00
14232;BME280;7200;52.194;9.900;2022-11-21T12:16:03;99099.50;;;1.37;100.00
14232;BME280;7200;52.194;9.900;2022-11-21T12:18:37;99113.25;;;1.44;100.00
14232;BME280;7200;52.194;9.900;2022-11-21T12:21:10;99112.94;;;1.59;100.00
14232;BME280;7200;52.194;9.900;2022-11-21T12:26:44;99057.03;;;1.40;100.00
14232;BME280;7200;52.194;9.900;2022-11-21T12:29:51;99055.47;;;1.31;100.00
14232;BME280;7200;52.194;9.900;2022-11-21T12:37:50;99030.47;;;1.27;100.00
14232;BME280;7200;52.194;9.900;2022-11-21T12:45:56;99020.88;;;1.29;100.00
14232;BME280;7200;52.194;9.900;2022-11-21T12:48:41;98995.91;;;1.22;100.00
14232;BME280;7200;52.194;9.900;2022-11-21T12:57:20;99005.16;;;1.35;100.00
14232;BME280;7200;52.194;9.900;2022-11-21T13:00:14;99004.19;;;1.39;100.00
14232;BME280;7200;52.194;9.900;2022-11-21T13:02:52;99004.19;;;1.39;100.00
14232;BME280;7200;52.194;9.900;2022-11-21T13:05:29;99016.09;;;1.51;100.00
14232;BME280;7200;52.194;9.900;2022-11-21T13:08:06;98997.13;;;1.46;100.00
14232;BME280;7200;52.194;9.900;2022-11-21T13:10:33;98991.13;;;1.44;100.00
14232;BME280;7200;52.194;9.900;2022-11-21T13:15:53;98972.81;;;1.48;100.00
14232;BME280;7200;52.194;9.900;2022-11-21T13:18:22;98976.16;;;1.53;100.00
14232;BME280;7200;52.194;9.900;2022-11-21T13:20:50;98959.97;;;1.42;100.00
14232;BME280;7200;52.194;9.900;2022-11-21T13:23:39;98968.47;;;1.49;100.00
14232;BME280;7200;52.194;9.900;2022-11-21T13:28:49;98969.41;;;1.45;100.00
14232;BME280;7200;52.194;9.900;2022-11-21T13:31:27;98966.81;;;1.45;100.00
14232;BME280;7200;52.194;9.900;2022-11-21T13:33:53;98959.13;;;1.42;100.00
14232;BME280;7200;52.194;9.900;2022-11-21T14:07:25;98867.53;;;0.94;100.00
14232;BME280;7200;52.194;9.900;2022-11-21T14:09:52;98858.06;;;0.92;100.00
14232;BME280;7200;52.194;9.900;2022-11-21T14:12:37;98859.00;;;0.89;100.00
14232;BME280;7200;52.194;9.900;2022-11-21T14:17:34;98875.56;;;0.84;100.00
14232;BME280;7200;52.194;9.900;2022-11-21T14:20:13;98863.72;;;0.72;100.00
14232;BME280;7200;52.194;9.900;2022-11-21T14:22:45;98857.69;;;0.70;100.00
14232;BME280;7200;52.194;9.900;2022-11-21T14:25:17;98865.56;;;0.65;100.00
14232;BME280;7200;52.194;9.900;2022-11-21T14:27:46;98855.31;;;0.59;100.00
14232;BME280;7200;52.194;9.900;2022-11-21T14:30:30;98853.69;;;0.55;100.00
14232;BME280;7200;52.194;9.900;2022-11-21T14:32:56;98850.38;;;0.47;100.00
14232;BME280;7200;52.194;9.900;2022-11-21T14:35:22;98848.03;;;0.36;100.00
14232;BME280;7200;52.194;9.900;2022-11-21T14:37:49;98842.97;;;0.28;100.00
14232;BME280;7200;52.194;9.900;2022-11-21T14:40:20;98844.72;;;0.28;100.00
14232;BME280;7200;52.194;9.900;2022-11-21T14:42:46;98842.25;;;0.22;100.00
14232;BME280;7200;52.194;9.900;2022-11-21T14:45:20;98841.44;;;0.19;100.00